createdAt,value
2018-11-07T00:02:21.111Z,10.57
2018-11-07T00:04:49.629Z,11.00
2018-11-07T00:07:18.175Z,11.80
2018-11-07T00:09:46.687Z,10.80
2018-11-07T00:12:15.244Z,11.47
2018-11-07T00:14:43.796Z,11.33
2018-11-07T00:17:12.320Z,11.10
2018-11-07T00:19:40.923Z,11.80
2018-11-07T00:22:09.430Z,11.03
2018-11-07T00:24:37.955Z,10.67
2018-11-07T00:27:06.498Z,10.60
2018-11-07T00:29:35.043Z,11.40
2018-11-07T00:32:03.562Z,10.80
2018-11-07T00:34:32.138Z,11.17
2018-11-07T00:37:00.687Z,8.90
2018-11-07T00:39:29.223Z,11.20
2018-11-07T00:41:57.754Z,10.87
2018-11-07T00:44:26.294Z,9.67
2018-11-07T00:46:54.815Z,9.53
2018-11-07T00:49:23.371Z,9.60
2018-11-07T00:51:51.904Z,8.63
2018-11-07T00:54:20.427Z,9.83
2018-11-07T00:56:48.925Z,9.63
2018-11-07T00:59:17.489Z,9.43
2018-11-07T01:01:46.027Z,8.80
2018-11-07T01:04:14.611Z,9.83
2018-11-07T01:06:43.142Z,9.53
2018-11-07T01:09:12.778Z,9.83
2018-11-07T01:11:42.562Z,9.27
2018-11-07T01:14:11.676Z,10.97
2018-11-07T01:16:40.215Z,9.97
2018-11-07T01:19:08.881Z,10.10
2018-11-07T01:21:37.410Z,9.70
2018-11-07T01:24:06.000Z,8.73
2018-11-07T01:26:34.518Z,9.47
2018-11-07T01:29:03.068Z,9.17
2018-11-07T01:31:31.610Z,10.50
2018-11-07T01:34:00.137Z,9.67
2018-11-07T01:36:28.655Z,9.03
2018-11-07T01:38:57.174Z,9.07
2018-11-07T01:41:25.706Z,10.13
2018-11-07T01:43:54.347Z,10.13
2018-11-07T01:46:22.899Z,9.23
2018-11-07T01:48:51.425Z,9.17
2018-11-07T01:51:19.960Z,8.80
2018-11-07T01:53:48.483Z,9.33
2018-11-07T01:56:16.997Z,9.30
2018-11-07T01:58:45.491Z,9.60
2018-11-07T02:01:14.028Z,9.63
2018-11-07T02:03:42.740Z,8.87
2018-11-07T02:06:11.251Z,9.30
2018-11-07T02:08:40.219Z,9.23
2018-11-07T02:11:08.790Z,9.03
2018-11-07T02:13:37.311Z,9.33
2018-11-07T02:16:05.863Z,9.30
2018-11-07T02:18:34.365Z,9.67
2018-11-07T02:21:02.911Z,10.00
2018-11-07T02:23:31.432Z,8.90
2018-11-07T02:25:59.974Z,10.37
2018-11-07T02:28:28.503Z,9.80
2018-11-07T02:30:56.995Z,10.10
2018-11-07T02:33:25.543Z,9.70
2018-11-07T02:35:54.078Z,8.90
2018-11-07T02:38:22.606Z,9.43
2018-11-07T02:40:51.135Z,8.70
2018-11-07T02:43:19.664Z,8.27
2018-11-07T02:45:48.211Z,9.80
2018-11-07T02:48:17.095Z,7.80
2018-11-07T02:50:45.577Z,9.00
2018-11-07T02:53:14.209Z,9.33
2018-11-07T02:55:42.655Z,8.43
2018-11-07T02:58:11.154Z,8.70
2018-11-07T03:00:39.683Z,8.13
2018-11-07T03:03:08.247Z,10.00
2018-11-07T03:05:36.753Z,9.43
2018-11-07T03:08:05.343Z,10.47
2018-11-07T03:10:33.911Z,10.07
2018-11-07T03:13:02.403Z,9.73
2018-11-07T03:15:30.906Z,10.10
2018-11-07T03:17:59.413Z,9.27
2018-11-07T03:20:27.928Z,10.70
2018-11-07T03:22:56.471Z,10.37
2018-11-07T03:25:24.999Z,10.53
2018-11-07T03:27:53.511Z,9.90
2018-11-07T03:30:22.018Z,8.90
2018-11-07T03:32:50.521Z,9.27
2018-11-07T03:35:24.467Z,9.20
2018-11-07T03:37:53.035Z,7.60
2018-11-07T03:40:21.618Z,8.30
2018-11-07T03:42:50.130Z,9.23
2018-11-07T03:45:22.455Z,8.70
2018-11-07T03:47:50.981Z,8.70
2018-11-07T03:50:19.497Z,8.20
2018-11-07T03:52:48.039Z,8.47
2018-11-07T03:55:16.535Z,8.33
2018-11-07T03:57:45.062Z,8.10
2018-11-07T04:00:13.558Z,8.40
2018-11-07T04:02:42.074Z,8.90
2018-11-07T04:05:11.739Z,8.97
2018-11-07T04:07:41.358Z,8.40
2018-11-07T04:10:09.922Z,8.43
2018-11-07T04:12:38.471Z,8.07
2018-11-07T04:15:07.651Z,7.10
2018-11-07T04:17:36.230Z,7.87
2018-11-07T04:20:05.878Z,8.10
2018-11-07T04:22:34.379Z,7.93
2018-11-07T04:25:02.900Z,7.50
2018-11-07T04:27:31.526Z,8.03
2018-11-07T04:30:00.038Z,7.70
2018-11-07T04:32:28.558Z,8.40
2018-11-07T04:34:57.074Z,7.67
2018-11-07T04:37:25.611Z,7.40
2018-11-07T04:39:54.106Z,8.13
2018-11-07T04:42:22.627Z,7.00
2018-11-07T04:44:51.146Z,6.63
2018-11-07T04:47:19.646Z,7.63
2018-11-07T04:49:48.140Z,7.17
2018-11-07T04:52:16.636Z,6.20
2018-11-07T04:54:45.153Z,6.77
2018-11-07T04:57:13.660Z,5.97
2018-11-07T04:59:42.234Z,6.80
2018-11-07T05:02:10.754Z,5.67
2018-11-07T05:04:39.264Z,6.47
2018-11-07T05:07:07.747Z,6.47
2018-11-07T05:09:36.251Z,4.30
2018-11-07T05:12:05.269Z,5.57
2018-11-07T05:14:33.814Z,4.47
2018-11-07T05:17:02.370Z,5.37
2018-11-07T05:19:30.917Z,5.10
2018-11-07T05:21:59.422Z,5.70
2018-11-07T05:24:27.978Z,6.23
2018-11-07T05:26:56.499Z,5.60
2018-11-07T05:29:25.011Z,5.53
2018-11-07T05:31:53.535Z,5.97
2018-11-07T05:34:22.027Z,5.80
2018-11-07T05:36:50.550Z,6.00
2018-11-07T05:39:19.072Z,5.33
2018-11-07T05:41:47.622Z,5.90
2018-11-07T05:44:16.121Z,7.07
2018-11-07T05:46:44.629Z,5.77
2018-11-07T05:49:13.272Z,7.03
2018-11-07T05:51:41.794Z,6.03
2018-11-07T05:54:10.292Z,6.30
2018-11-07T05:56:38.889Z,7.23
2018-11-07T05:59:07.367Z,6.80
2018-11-07T06:01:36.006Z,5.60
2018-11-07T06:04:04.688Z,6.47
2018-11-07T06:06:33.181Z,7.03
2018-11-07T06:09:01.718Z,5.77
2018-11-07T06:11:30.222Z,6.00
2018-11-07T06:13:58.734Z,6.23
2018-11-07T06:16:27.261Z,5.87
2018-11-07T06:18:55.802Z,5.50
2018-11-07T06:21:24.333Z,6.10
2018-11-07T06:23:52.855Z,5.20
2018-11-07T06:26:21.389Z,5.50
2018-11-07T06:28:49.923Z,5.30
2018-11-07T06:31:18.429Z,6.30
2018-11-07T06:33:46.967Z,5.80
2018-11-07T06:36:15.509Z,6.03
2018-11-07T06:38:44.022Z,5.40
2018-11-07T06:41:12.549Z,5.00
2018-11-07T06:43:41.055Z,5.40
2018-11-07T06:46:09.627Z,5.00
2018-11-07T06:48:38.135Z,4.10
2018-11-07T06:51:06.655Z,3.60
2018-11-07T06:53:35.216Z,4.20
2018-11-07T06:56:03.751Z,3.80
2018-11-07T06:58:32.316Z,3.27
2018-11-07T07:01:00.839Z,4.70
2018-11-07T07:03:29.376Z,4.00
2018-11-07T07:05:57.936Z,4.17
2018-11-07T07:08:26.575Z,4.33
2018-11-07T07:10:55.053Z,4.90
2018-11-07T07:13:23.611Z,4.20
2018-11-07T07:15:52.222Z,4.97
2018-11-07T07:18:20.751Z,4.53
2018-11-07T07:20:49.319Z,4.70
2018-11-07T07:23:17.846Z,4.00
2018-11-07T07:25:46.409Z,4.53
2018-11-07T07:28:14.976Z,4.03
2018-11-07T07:30:43.503Z,3.70
2018-11-07T07:33:12.069Z,3.93
2018-11-07T07:35:40.551Z,3.47
2018-11-07T07:38:09.076Z,3.20
2018-11-07T07:40:37.572Z,3.30
2018-11-07T07:43:06.306Z,2.57
2018-11-07T07:45:34.904Z,2.70
2018-11-07T07:48:03.383Z,3.27
2018-11-07T07:50:31.886Z,2.93
2018-11-07T07:53:00.510Z,2.70
2018-11-07T07:55:29.019Z,2.80
2018-11-07T07:57:57.590Z,3.10
2018-11-07T08:00:26.192Z,3.40
2018-11-07T08:02:54.695Z,2.87
2018-11-07T08:05:23.247Z,3.10
2018-11-07T08:07:51.846Z,2.40
2018-11-07T08:10:21.495Z,2.70
2018-11-07T08:12:50.491Z,2.57
2018-11-07T08:15:19.623Z,2.70
2018-11-07T08:17:48.141Z,2.50
2018-11-07T08:20:17.784Z,2.87
2018-11-07T08:22:47.022Z,2.73
2018-11-07T08:25:15.508Z,2.60
2018-11-07T08:27:44.037Z,2.90
2018-11-07T08:30:18.764Z,2.43
2018-11-07T08:32:47.287Z,2.10
2018-11-07T08:35:16.433Z,2.40
2018-11-07T08:37:45.738Z,2.73
2018-11-07T08:40:18.430Z,2.03
2018-11-07T08:42:47.751Z,4.47
2018-11-07T08:45:16.276Z,2.10
2018-11-07T08:47:45.511Z,2.13
2018-11-07T08:50:15.707Z,2.33
2018-11-07T08:52:45.355Z,2.40
2018-11-07T08:55:15.374Z,2.20
2018-11-07T08:57:43.945Z,2.00
2018-11-07T09:00:17.147Z,2.00
2018-11-07T09:02:45.766Z,2.07
2018-11-07T09:05:15.127Z,1.77
2018-11-07T09:07:44.506Z,2.13
2018-11-07T09:10:14.767Z,2.40
2018-11-07T09:12:43.266Z,2.40
2018-11-07T09:15:16.034Z,1.70
2018-11-07T09:17:44.546Z,1.77
2018-11-07T09:20:15.558Z,2.33
2018-11-07T09:22:44.102Z,1.90
2018-11-07T09:25:13.404Z,1.90
2018-11-07T09:27:42.338Z,1.90
2018-11-07T09:30:14.587Z,2.10
2018-11-07T09:32:43.179Z,1.53
2018-11-07T09:35:12.486Z,1.87
2018-11-07T09:37:41.039Z,1.60
2018-11-07T09:40:11.476Z,1.50
2018-11-07T09:42:40.608Z,1.70
2018-11-07T09:45:10.778Z,1.50
2018-11-07T09:47:39.904Z,1.70
2018-11-07T09:50:09.451Z,1.80
2018-11-07T09:52:38.394Z,1.23
2018-11-07T09:55:08.757Z,1.70
2018-11-07T09:57:37.622Z,1.47
2018-11-07T10:00:09.305Z,1.90
2018-11-07T10:02:37.885Z,1.20
2018-11-07T10:45:46.250Z,1.30
2018-11-07T10:48:14.870Z,0.93
2018-11-07T10:50:43.529Z,1.63
2018-11-07T10:53:12.368Z,1.60
2018-11-07T10:55:41.607Z,0.93
2018-11-07T10:58:10.260Z,0.87
2018-11-07T11:00:45.421Z,1.03
2018-11-07T11:03:19.421Z,0.70
2018-11-07T11:05:48.493Z,0.83
2018-11-07T11:08:17.566Z,1.00
2018-11-07T11:10:46.659Z,1.57
2018-11-07T11:13:15.762Z,0.73
2018-11-07T11:15:44.849Z,1.20
2018-11-07T11:18:14.217Z,0.87
2018-11-07T11:20:43.473Z,1.10
2018-11-07T11:23:12.209Z,0.90
2018-11-07T11:25:40.881Z,1.13
2018-11-07T11:28:09.566Z,1.00
2018-11-07T11:30:38.201Z,1.17
2018-11-07T11:33:06.888Z,1.37
2018-11-07T11:35:35.512Z,1.50
2018-11-07T11:38:04.200Z,1.20
2018-11-07T11:40:34.262Z,1.00
2018-11-07T11:43:04.110Z,1.23
2018-11-07T11:45:32.779Z,1.80
2018-11-07T11:48:01.412Z,1.30
2018-11-07T11:50:30.068Z,1.40
2018-11-07T11:52:59.723Z,1.07
2018-11-07T11:55:28.399Z,1.50
2018-11-07T11:57:57.763Z,1.40
2018-11-07T12:00:26.446Z,1.33
2018-11-07T12:02:55.130Z,2.00
2018-11-07T12:05:23.789Z,1.57
2018-11-07T12:07:52.479Z,1.13
2018-11-07T12:10:24.400Z,1.10
2018-11-07T12:12:55.403Z,1.20
2018-11-07T12:15:25.396Z,1.23
2018-11-07T12:17:54.547Z,1.50
2018-11-07T12:20:23.247Z,1.33
2018-11-07T12:22:51.915Z,1.23
2018-11-07T12:25:21.363Z,1.00
2018-11-07T12:27:50.005Z,0.90
2018-11-07T12:30:20.795Z,1.17
2018-11-07T12:32:50.460Z,1.30
2018-11-07T12:35:19.807Z,1.80
2018-11-07T12:37:48.480Z,1.40
2018-11-07T12:40:18.055Z,0.97
2018-11-07T12:42:46.789Z,1.30
2018-11-07T12:45:16.291Z,1.80
2018-11-07T12:47:44.944Z,1.67
2018-11-07T12:50:22.194Z,1.10
2018-11-07T12:52:50.875Z,1.10
2018-11-07T12:55:20.464Z,1.33
2018-11-07T12:57:49.151Z,1.40
2018-11-07T13:00:26.576Z,1.07
2018-11-07T13:02:55.304Z,1.00
2018-11-07T13:05:24.931Z,1.13
2018-11-07T13:07:54.432Z,1.20
2018-11-07T13:10:27.651Z,1.30
2018-11-07T13:12:56.323Z,1.20
2018-11-07T13:15:24.939Z,1.03
2018-11-07T13:17:53.828Z,1.20
2018-11-07T13:20:25.407Z,1.40
2018-11-07T13:22:56.176Z,1.43
2018-11-07T13:25:25.689Z,1.00
2018-11-07T13:27:54.303Z,0.97
2018-11-07T13:30:23.345Z,1.10
2018-11-07T13:32:52.056Z,0.93
2018-11-07T13:35:20.871Z,1.17
2018-11-07T13:37:50.554Z,1.20
2018-11-07T13:40:23.438Z,1.10
2018-11-07T13:42:52.099Z,1.53
2018-11-07T13:45:21.907Z,1.03
2018-11-07T13:47:51.744Z,1.13
2018-11-07T13:50:20.760Z,0.97
2018-11-07T13:52:49.421Z,1.40
2018-11-07T13:55:18.020Z,1.57
2018-11-07T13:57:46.877Z,0.90
2018-11-07T14:00:17.428Z,1.40
2018-11-07T14:02:46.487Z,1.30
2018-11-07T14:05:15.230Z,1.20
2018-11-07T14:07:43.784Z,1.00
2018-11-07T14:10:14.832Z,0.90
2018-11-07T14:12:43.456Z,1.23
2018-11-07T14:15:13.443Z,1.33
2018-11-07T14:17:42.582Z,1.60
2018-11-07T14:20:11.282Z,0.90
2018-11-07T14:22:40.527Z,1.17
2018-11-07T14:25:09.917Z,1.23
2018-11-07T14:27:38.564Z,1.00
2018-11-07T14:30:10.833Z,1.00
2018-11-07T14:32:43.072Z,1.40
2018-11-07T14:35:11.886Z,1.10
2018-11-07T14:37:40.514Z,1.13
2018-11-07T14:40:09.200Z,1.17
2018-11-07T14:42:38.412Z,1.10
2018-11-07T14:45:11.368Z,0.83
2018-11-07T14:47:40.598Z,1.17
2018-11-07T14:50:10.419Z,1.27
2018-11-07T14:52:39.186Z,1.30
2018-11-07T14:55:08.685Z,1.30
2018-11-07T14:57:37.447Z,1.70
2018-11-07T15:00:10.499Z,1.70
2018-11-07T15:02:39.946Z,1.63
2018-11-07T15:05:10.204Z,1.83
2018-11-07T15:07:38.973Z,1.23
2018-11-07T15:10:09.392Z,1.40
2018-11-07T15:12:38.307Z,1.40
2018-11-07T15:15:08.954Z,1.27
2018-11-07T15:17:37.620Z,1.83
2018-11-07T15:20:07.327Z,1.73
2018-11-07T15:22:36.016Z,1.40
2018-11-07T15:25:06.454Z,1.63
2018-11-07T15:27:35.067Z,1.60
2018-11-07T15:30:03.792Z,1.27
2018-11-07T15:32:32.506Z,1.50
2018-11-07T15:35:01.113Z,1.17
2018-11-07T15:37:29.784Z,1.30
2018-11-07T15:39:58.391Z,2.00
2018-11-07T15:42:27.042Z,1.47
2018-11-07T15:44:55.671Z,1.67
2018-11-07T15:47:24.288Z,1.30
2018-11-07T15:49:58.159Z,1.30
2018-11-07T15:52:28.164Z,1.40
2018-11-07T15:54:56.775Z,1.20
2018-11-07T15:57:25.428Z,1.00
2018-11-07T15:59:55.215Z,1.30
2018-11-07T16:02:23.876Z,1.03
2018-11-07T16:04:52.501Z,1.07
2018-11-07T16:07:21.174Z,1.10
2018-11-07T16:09:50.081Z,1.63
2018-11-07T16:12:18.699Z,1.13
2018-11-07T16:14:47.360Z,1.20
2018-11-07T16:17:16.048Z,1.10
2018-11-07T16:19:44.742Z,1.13
2018-11-07T16:22:13.362Z,1.30
2018-11-07T16:24:41.988Z,1.30
2018-11-07T16:27:10.638Z,1.10
2018-11-07T16:29:39.288Z,1.50
2018-11-07T16:32:07.944Z,1.07
2018-11-07T16:34:36.796Z,1.43
2018-11-07T16:37:05.536Z,1.50
2018-11-07T16:39:34.208Z,0.97
2018-11-07T16:42:02.792Z,1.00
2018-11-07T16:44:31.659Z,0.90
2018-11-07T16:47:00.305Z,0.93
2018-11-07T16:49:29.101Z,0.80
2018-11-07T16:51:57.705Z,1.07
2018-11-07T16:54:26.532Z,0.80
2018-11-07T16:56:55.158Z,1.40
2018-11-07T16:59:23.795Z,1.20
2018-11-07T17:01:52.449Z,1.50
2018-11-07T17:04:21.050Z,1.27
2018-11-07T17:06:49.730Z,1.27
2018-11-07T17:09:18.373Z,1.37
2018-11-07T17:11:46.981Z,0.80
2018-11-07T17:14:15.582Z,1.10
2018-11-07T17:16:44.232Z,0.90
2018-11-07T17:19:12.933Z,0.80
2018-11-07T17:21:41.592Z,0.80
2018-11-07T17:24:10.373Z,1.00
2018-11-07T17:26:38.913Z,1.00
2018-11-07T17:29:07.812Z,1.10
2018-11-07T17:31:36.461Z,0.87
2018-11-07T17:34:05.443Z,1.30
2018-11-07T17:36:34.072Z,1.00
2018-11-07T17:39:02.775Z,1.00
2018-11-07T17:41:31.407Z,1.20
2018-11-07T17:44:00.026Z,1.00
2018-11-07T17:46:28.683Z,0.90
2018-11-07T17:48:57.320Z,0.87
2018-11-07T17:51:25.944Z,0.97
2018-11-07T17:53:54.604Z,0.93
2018-11-07T17:56:23.742Z,1.30
2018-11-07T17:58:52.410Z,1.57
2018-11-07T18:01:21.040Z,1.20
2018-11-07T18:03:49.805Z,1.53
2018-11-07T18:06:18.380Z,1.10
2018-11-07T18:08:46.992Z,1.03
2018-11-07T18:11:16.012Z,0.83
2018-11-07T18:13:44.712Z,0.83
2018-11-07T18:16:13.289Z,1.30
2018-11-07T18:18:42.698Z,1.10
2018-11-07T18:21:11.776Z,0.80
2018-11-07T18:23:40.452Z,0.97
2018-11-07T18:26:09.097Z,1.10
2018-11-07T18:28:37.797Z,1.47
2018-11-07T18:31:06.456Z,1.13
2018-11-07T18:33:35.148Z,1.03
2018-11-07T18:36:03.872Z,1.00
2018-11-07T18:38:32.507Z,0.93
2018-11-07T18:41:01.352Z,0.80
2018-11-07T18:43:29.931Z,1.07
2018-11-07T18:45:58.570Z,0.83
2018-11-07T18:48:27.182Z,1.67
2018-11-07T18:50:55.907Z,0.90
2018-11-07T18:53:24.497Z,1.13
2018-11-07T18:55:53.113Z,0.80
2018-11-07T18:58:21.780Z,0.70
2018-11-07T19:00:50.398Z,1.10
2018-11-07T19:03:19.011Z,1.20
2018-11-07T19:05:47.681Z,1.00
2018-11-07T19:08:16.309Z,1.50
2018-11-07T19:10:44.936Z,1.60
2018-11-07T19:13:13.542Z,1.50
2018-11-07T19:15:42.185Z,2.80
2018-11-07T19:18:10.787Z,1.37
2018-11-07T19:20:39.416Z,1.60
2018-11-07T19:23:08.028Z,1.67
2018-11-07T19:25:36.663Z,1.87
2018-11-07T19:28:05.360Z,2.00
2018-11-07T19:30:33.991Z,2.13
2018-11-07T19:33:02.602Z,1.90
2018-11-07T19:35:31.212Z,1.10
2018-11-07T19:37:59.799Z,1.20
2018-11-07T19:40:28.445Z,1.00
2018-11-07T19:42:57.072Z,1.03
2018-11-07T19:45:25.740Z,0.87
2018-11-07T19:47:54.444Z,1.17
2018-11-07T19:50:23.704Z,1.10
2018-11-07T19:52:52.832Z,1.17
2018-11-07T19:55:23.252Z,0.80
2018-11-07T19:58:01.225Z,1.10
2018-11-07T20:00:29.904Z,0.90
2018-11-07T20:02:58.566Z,1.00
2018-11-07T20:05:27.210Z,1.30
2018-11-07T20:10:36.848Z,0.93
2018-11-07T20:13:05.686Z,0.90
2018-11-07T20:15:34.392Z,1.03
2018-11-07T20:18:03.076Z,0.70
2018-11-07T20:20:31.733Z,0.87
2018-11-07T20:23:00.729Z,1.23
2018-11-07T20:25:36.184Z,0.90
2018-11-07T20:28:05.365Z,1.07
2018-11-07T20:30:34.002Z,1.23
2018-11-07T20:33:02.660Z,1.10
2018-11-07T20:35:31.362Z,1.00
2018-11-07T20:38:00.016Z,1.27
2018-11-07T20:40:28.674Z,1.30
2018-11-07T20:42:57.320Z,1.10
2018-11-07T20:45:26.019Z,0.90
2018-11-07T20:47:54.656Z,1.10
2018-11-07T20:50:23.300Z,0.90
2018-11-07T20:52:51.908Z,0.97
2018-11-07T20:55:20.618Z,1.10
2018-11-07T20:57:49.428Z,1.30
2018-11-07T21:00:20.321Z,0.83
2018-11-07T21:02:49.292Z,1.30
2018-11-07T21:05:18.020Z,1.10
2018-11-07T21:07:46.982Z,1.30
2018-11-07T21:10:17.206Z,1.23
2018-11-07T21:12:46.283Z,1.53
2018-11-07T21:15:16.139Z,1.40
2018-11-07T21:17:45.101Z,1.00
2018-11-07T21:20:13.751Z,0.80
2018-11-07T21:22:42.988Z,1.47
2018-11-07T21:25:12.110Z,1.30
2018-11-07T21:27:40.845Z,3.43
2018-11-07T21:30:13.374Z,1.30
2018-11-07T21:32:42.459Z,1.00
2018-11-07T21:35:11.325Z,1.20
2018-11-07T21:37:39.983Z,1.07
2018-11-07T21:40:10.475Z,1.17
2018-11-07T21:42:39.490Z,0.93
2018-11-07T21:45:09.798Z,1.13
2018-11-07T21:47:38.987Z,1.07
2018-11-07T21:50:09.196Z,1.00
2018-11-07T21:52:38.018Z,1.00
2018-11-07T21:55:06.931Z,0.97
2018-11-07T21:57:35.963Z,1.13
2018-11-07T22:00:06.098Z,0.80
2018-11-07T22:02:34.798Z,1.13
2018-11-07T22:05:13.985Z,0.90
2018-11-07T22:07:42.886Z,1.30
2018-11-07T22:10:12.655Z,1.30
2018-11-07T22:12:41.302Z,1.77
2018-11-07T22:15:10.649Z,1.10
2018-11-07T22:17:39.308Z,1.40
2018-11-07T22:20:13.592Z,1.30
2018-11-07T22:22:42.489Z,1.13
2018-11-07T22:25:11.187Z,1.53
2018-11-07T22:27:39.766Z,1.50
2018-11-07T22:30:10.149Z,1.27
2018-11-07T22:32:39.090Z,1.47
2018-11-07T22:35:09.458Z,1.37
2018-11-07T22:37:38.069Z,1.40
2018-11-07T22:40:08.435Z,1.50
2018-11-07T22:42:37.463Z,1.30
2018-11-07T22:45:07.396Z,1.60
2018-11-07T22:47:36.852Z,1.60
2018-11-07T22:50:06.107Z,1.80
2018-11-07T22:52:34.727Z,1.70
2018-11-07T22:55:03.384Z,1.60
2018-11-07T22:57:53.601Z,1.40
2018-11-07T23:00:27.585Z,1.20
2018-11-07T23:02:56.760Z,1.50
2018-11-07T23:05:25.408Z,1.50
2018-11-07T23:07:54.068Z,1.30
2018-11-07T23:10:22.694Z,1.57
2018-11-07T23:12:51.680Z,1.37
2018-11-07T23:15:26.755Z,1.70
2018-11-07T23:17:55.412Z,1.70
2018-11-07T23:20:24.025Z,1.73
2018-11-07T23:22:52.675Z,1.50
2018-11-07T23:25:21.311Z,1.57
2018-11-07T23:27:49.972Z,2.27
2018-11-07T23:30:18.607Z,1.60
2018-11-07T23:32:47.240Z,1.90
2018-11-07T23:35:15.931Z,1.80
2018-11-07T23:37:44.608Z,1.50
2018-11-07T23:40:13.640Z,1.63
2018-11-07T23:42:42.271Z,1.30
2018-11-07T23:45:10.982Z,1.70
2018-11-07T23:47:39.656Z,1.73
2018-11-07T23:50:08.818Z,1.50
2018-11-07T23:52:54.002Z,1.70
2018-11-07T23:55:23.596Z,1.70
2018-11-07T23:57:52.923Z,1.67
